CLMO2: North Canadian River

                                SHEF ID:       CLMO2     North Canadian River near Calume
STATION TYPE:
Regulating: Stage = 12.00, Flow = 1420

STAGE STAGE(2) RIV-FLOW WTR-TEMP DIS-OXY PH CONDUCT BAT-LOAD
ft ft cfs F mg/l su umho/cm volt
Ccp-Rev Ccp-Rev Ccp-Rev Ccp-Rev Ccp-Rev Ccp-Rev Ccp-Rev Ccp-Rev
(America/Chicago)
07/14 00:00 3.28 ---- 12 83.53 5.08 8.36 1590 12.63
07/14 01:00 3.27 ---- 11 82.44 5.02 8.33 1581 12.61
07/14 02:00 3.26 ---- 11 81.36 4.99 8.29 1571 12.33
07/14 03:00 3.25 ---- 10 80.31 5.06 8.25 1560 12.36
07/14 04:00 3.24 ---- 10 79.32 5.06 8.21 1544 12.30
07/14 05:00 3.23 ---- 10 78.37 5.15 8.18 1548 12.36
07/14 06:00 3.22 ---- 9 77.58 5.29 8.16 1539 12.25
07/14 07:00 3.22 ---- 9 76.86 5.42 8.12 1527 12.41
07/14 08:00 3.22 ---- 9 76.66 5.78 8.12 1512 12.17
07/14 09:00 3.21 ---- 9 77.38 6.54 8.15 1497 12.31
07/14 10:00 3.21 ---- 9 79.38 7.83 8.23 1477 12.31
07/14 11:00 3.19 ---- 8 83.05 9.02 8.33 1458 12.36
07/14 12:00 3.19 ---- 8 87.31 10.10 8.44 1431 12.40
07/14 13:00 3.18 ---- 8 90.57 11.39 8.53 1361 12.48
07/14 14:00 3.17 ---- 7 92.91 11.80 8.56 1325 12.44
07/14 15:00 3.17 ---- 7 95.14 11.71 8.63 1292 12.81
07/14 16:00 3.17 ---- 7 95.27 11.35 8.71 1247 12.80
07/14 17:00 3.16 ---- 7 95.70 11.20 8.75 1219 12.73
07/14 18:00 3.16 ---- 7 94.89 10.23 8.77 1150 12.57
07/14 19:00 3.15 ---- 7 92.48 8.91 8.75 1116 12.53
07/14 20:00 3.15 ---- 7 89.71 7.19 8.69 1098 12.49
07/14 21:00 3.15 ---- 7 87.55 5.96 8.62 1083 12.50
07/14 22:00 3.16 ---- 7 85.71 5.24 8.53 1072 12.42
07/14 23:00 3.15 ---- 7 84.13 4.83 8.46 1054 12.52
Data processed at Wed 15Jul2026 04:25 GMT

NOTICE: If you are parsing this page

Please convert to using our Data API. Starting early 2026 we will be migrating to: https://water.usace.army.mil with modern pages rendered in JavaScript. When this migration completes you will no longer be able to scrape this page! CWMSDataAPI (CDA)

Timeseries IDs (TSIDs)

TSIDs used from left to right in the data table
CALU.Stage.Inst.1Hour.0.Ccp-Rev
CALU.Stage-Alt.Inst.1Hour.0.Ccp-Rev
CALU.Flow.Inst.1Hour.0.Ccp-Rev
CALU.Temp-Water.Inst.1Hour.0.Ccp-Rev
CALU.Conc-DO.Inst.1Hour.0.Ccp-Rev
CALU.pH.Inst.1Hour.0.Ccp-Rev
CALU.Cond-Water.Inst.1Hour.0.Ccp-Rev
CALU.Volt-Battery Load.Inst.1Hour.0.Ccp-Rev

                            

All information presented herein is the property of the government of the United States of America and may be revised or deleted at any time without prior notice. Dissemination of this information without the expressed written consent of the Public Affairs Office, Tulsa District U.S. Army Corps of Engineers is strictly prohibited. These data are gathered electronically and, as presented, have NOT undergone any form of quality control. These data are NOT guaranteed to be valid or correct.